Time;durP1;ratioP1;P1;durP2;ratioP2;P2;SDS_P1;SDS_P2;PMS_P1;PMS_P2;Temp;Humidity;BMP_temperature;BMP_pressure;BME280_temperature;BME280_humidity;BME280_pressure;Samples;Min_cycle;Max_cycle;Signal;HPM_P1;HPM_P2
2022/04/19 00:00:33;;;;;;;3.22;2.60;;;8.50;74.10;;;7.32;57.94;97022.03;4966084;28;20882;-76
2022/04/19 00:03:00;;;;;;;3.08;2.67;;;8.50;74.40;;;7.27;58.19;97018.53;4967967;28;20505;-76
2022/04/19 00:05:26;;;;;;;3.08;2.40;;;8.40;74.60;;;7.33;57.11;97023.63;4968067;28;20411;-76
2022/04/19 00:07:52;;;;;;;3.28;2.50;;;8.50;73.40;;;7.41;56.27;97024.25;4967816;28;20904;-76
2022/04/19 00:10:18;;;;;;;3.40;2.30;;;8.50;72.60;;;7.45;55.45;97026.16;4969919;28;20471;-76
2022/04/19 00:12:47;;;;;;;2.65;2.05;;;8.50;71.50;;;7.33;56.21;97023.63;4971363;28;20412;-77
2022/04/19 00:15:15;;;;;;;3.35;2.60;;;8.40;72.10;;;7.31;56.53;97017.00;4971115;28;20491;-76
2022/04/19 00:17:41;;;;;;;2.55;2.33;;;8.40;73.40;;;7.23;56.64;97022.66;4970971;28;20404;-76
2022/04/19 00:20:09;;;;;;;5.55;2.75;;;8.30;72.90;;;7.30;55.66;97012.75;4970543;28;21207;-76
2022/04/19 00:22:35;;;;;;;4.03;2.15;;;8.30;72.10;;;7.25;55.51;97008.22;4970920;28;20511;-76
2022/04/19 00:25:00;;;;;;;3.72;2.53;;;8.30;71.50;;;7.21;55.71;97007.13;4971076;28;20784;-76
2022/04/19 00:27:26;;;;;;;3.45;2.40;;;8.30;71.60;;;7.16;55.90;97007.00;4971015;28;20473;-76
2022/04/19 00:29:54;;;;;;;4.13;2.50;;;8.20;71.70;;;7.06;56.36;97004.22;4970892;28;20492;-76
2022/04/19 00:32:20;;;;;;;3.13;2.30;;;8.20;72.50;;;7.11;56.10;97003.50;4970399;28;20754;-76
2022/04/19 00:34:46;;;;;;;3.88;2.50;;;8.20;72.30;;;7.10;56.05;96999.28;4970685;28;20423;-76
2022/04/19 00:37:13;;;;;;;4.27;2.37;;;8.20;72.20;;;7.08;55.63;96998.72;4970664;28;20408;-76
2022/04/19 00:39:39;;;;;;;3.90;2.53;;;8.10;71.70;;;7.02;55.87;96994.41;4970383;28;20789;-76
2022/04/19 00:42:07;;;;;;;3.70;2.13;;;8.10;72.10;;;6.97;56.37;96998.56;4970309;28;21004;-76
2022/04/19 00:44:37;;;;;;;3.45;2.38;;;8.00;72.50;;;6.97;56.00;97000.38;4970557;28;20408;-76
2022/04/19 00:47:06;;;;;;;2.90;2.35;;;8.00;72.50;;;6.88;56.83;96991.28;4970807;28;20496;-76
2022/04/19 00:49:33;;;;;;;3.15;2.38;;;8.00;73.00;;;6.92;56.51;96993.19;4970316;28;20401;-76
2022/04/19 00:52:00;;;;;;;4.10;2.47;;;7.90;73.10;;;6.87;56.41;96987.84;4970192;28;20485;-76
2022/04/19 00:54:27;;;;;;;3.42;2.35;;;7.90;72.90;;;6.90;56.07;96992.66;4970267;28;20416;-76
2022/04/19 00:56:56;;;;;;;4.28;2.50;;;7.90;72.30;;;6.84;56.08;96987.53;4970564;28;20400;-76
2022/04/19 00:59:22;;;;;;;4.03;2.65;;;7.90;72.20;;;6.80;55.92;96984.56;4970312;28;20412;-76
2022/04/19 01:01:50;;;;;;;3.42;2.45;;;7.90;72.10;;;6.77;56.45;96978.97;4969872;28;20903;-76
2022/04/19 01:04:18;;;;;;;3.65;2.40;;;7.80;72.60;;;6.70;56.88;96978.31;4970329;28;20505;-76
2022/04/19 01:06:45;;;;;;;4.32;2.60;;;7.80;73.10;;;6.64;57.66;96966.91;4970255;28;20464;-76
2022/04/19 01:09:11;;;;;;;4.13;2.50;;;7.70;75.00;;;6.55;58.14;96977.00;4968719;28;20898;-76
2022/04/19 01:14:24;;;;;;;3.17;2.47;;;7.70;74.80;;;6.54;57.98;96969.38;4970129;28;20400;-76
2022/04/19 01:16:50;;;;;;;3.80;2.60;;;7.60;74.70;;;6.47;58.09;96974.75;4970191;28;20408;-75
2022/04/19 01:19:17;;;;;;;3.83;2.38;;;7.60;75.10;;;6.49;58.03;96967.44;4968634;28;20828;-76
2022/04/19 01:21:45;;;;;;;4.63;2.40;;;7.60;75.10;;;6.43;57.86;96971.00;4968531;28;20778;-77
2022/04/19 01:24:14;;;;;;;3.10;2.28;;;7.50;74.90;;;6.41;58.18;96965.19;4970064;28;20408;-76
2022/04/19 01:26:41;;;;;;;2.72;2.40;;;7.50;74.90;;;6.38;57.88;96965.66;4969921;28;20416;-76
2022/04/19 01:29:07;;;;;;;4.15;2.53;;;7.50;75.00;;;6.35;57.95;96955.63;4969721;28;20408;-77
2022/04/19 01:31:34;;;;;;;3.35;2.50;;;7.40;75.00;;;6.35;57.76;96967.94;4969426;28;20415;-76
2022/04/19 01:34:01;;;;;;;3.22;2.60;;;7.40;74.80;;;6.29;58.47;96967.06;4969798;28;20408;-76
2022/04/19 01:36:27;;;;;;;4.88;2.63;;;7.40;75.40;;;6.24;58.81;96964.31;4969782;28;20412;-76
2022/04/19 01:38:54;;;;;;;4.18;2.50;;;7.30;76.30;;;6.22;59.03;96964.56;4969359;28;20418;-76
2022/04/19 01:41:20;;;;;;;3.37;2.50;;;7.30;76.30;;;6.19;59.21;96954.53;4969397;28;20536;-74
2022/04/19 01:43:46;;;;;;;3.35;2.40;;;7.30;76.60;;;6.15;59.47;96953.41;4969754;28;20485;-76
2022/04/19 01:46:12;;;;;;;4.17;2.67;;;7.20;77.30;;;6.10;59.77;96949.84;4969465;28;20413;-76
2022/04/19 01:48:38;;;;;;;2.95;2.47;;;7.20;77.50;;;6.07;59.74;96952.97;4969421;28;20483;-76
2022/04/19 01:51:04;;;;;;;2.92;2.63;;;7.20;78.40;;;6.07;59.67;96939.81;4969091;28;20412;-76
2022/04/19 01:53:30;;;;;;;2.90;2.60;;;7.20;77.40;;;6.04;59.70;96937.66;4969535;28;20419;-76
2022/04/19 01:55:58;;;;;;;3.05;2.40;;;7.20;77.30;;;6.03;59.31;96936.84;4969400;28;20434;-77
2022/04/19 01:58:24;;;;;;;3.60;2.35;;;7.10;77.10;;;6.05;59.26;96940.06;4969670;28;20404;-76
2022/04/19 02:00:50;;;;;;;2.75;2.35;;;7.10;77.30;;;5.99;59.23;96932.31;4968798;28;20908;-77
2022/04/19 02:03:17;;;;;;;4.20;2.85;;;7.10;77.20;;;5.97;59.34;96932.53;4969357;28;20443;-76
2022/04/19 02:05:43;;;;;;;3.10;2.33;;;7.10;77.30;;;5.90;59.69;96931.06;4969333;28;20427;-76
2022/04/19 02:08:09;;;;;;;3.83;2.80;;;7.00;77.70;;;5.90;59.51;96942.38;4969352;28;20460;-77
2022/04/19 02:10:35;;;;;;;4.45;2.70;;;7.00;77.90;;;5.85;59.99;96937.00;4969412;28;20414;-76
2022/04/19 02:13:03;;;;;;;5.43;2.72;;;7.00;78.00;;;5.72;60.62;96948.53;4969536;28;20474;-77
2022/04/19 02:15:29;;;;;;;4.93;2.85;;;6.90;78.90;;;5.70;60.82;96940.09;4969319;28;20469;-76
2022/04/19 02:17:55;;;;;;;3.05;2.60;;;6.90;79.30;;;5.67;61.29;96943.19;4967863;28;20413;-74
2022/04/19 02:20:21;;;;;;;3.20;2.80;;;6.80;79.80;;;5.61;61.54;96946.72;4968495;28;20433;-76
2022/04/19 02:22:47;;;;;;;2.87;2.27;;;6.80;80.10;;;5.59;61.83;96951.41;4967811;28;20432;-76
2022/04/19 02:25:16;;;;;;;4.90;2.60;;;6.70;80.20;;;5.59;62.10;96950.59;4968893;28;20412;-76
2022/04/19 02:27:43;;;;;;;3.85;2.70;;;6.70;80.90;;;5.60;61.29;96945.13;4969001;28;20412;-76
2022/04/19 02:30:16;;;;;;;3.60;2.80;;;6.70;80.40;;;5.60;61.25;96937.25;4968795;28;20782;-76
2022/04/19 02:32:45;;;;;;;3.20;2.80;;;6.80;80.40;;;5.61;61.26;96943.31;4968749;28;20409;-76
2022/04/19 02:35:14;;;;;;;3.55;2.60;;;6.70;80.20;;;5.57;61.34;96934.28;4967772;28;20914;-76
2022/04/19 02:37:47;;;;;;;5.03;2.55;;;6.70;80.10;;;5.55;61.25;96931.09;4968815;28;20401;-76
2022/04/19 02:40:13;;;;;;;4.57;2.85;;;6.70;80.10;;;5.47;61.25;96929.63;4968435;28;20503;-76
2022/04/19 02:42:39;;;;;;;3.75;2.80;;;6.60;80.20;;;5.43;61.97;96933.72;4968710;28;20943;-76
2022/04/19 02:45:06;;;;;;;4.18;3.00;;;6.60;81.10;;;5.41;61.99;96936.56;4968791;28;20408;-76
2022/04/19 02:47:33;;;;;;;5.05;2.97;;;6.50;81.20;;;5.40;61.79;96934.19;4968702;28;20412;-76
2022/04/19 02:50:01;;;;;;;3.08;2.65;;;6.50;81.20;;;5.34;62.21;96927.22;4968738;28;20602;-76
2022/04/19 02:52:27;;;;;;;3.45;2.65;;;6.50;81.60;;;5.28;62.80;96930.75;4968472;28;20416;-76
2022/04/19 02:54:53;;;;;;;3.53;2.83;;;6.40;82.00;;;5.25;63.01;96928.63;4968588;28;20423;-76
2022/04/19 02:57:19;;;;;;;3.65;3.03;;;6.40;82.60;;;5.24;63.07;96930.44;4968556;28;20440;-76
2022/04/19 02:59:45;;;;;;;5.20;2.80;;;6.40;82.70;;;5.22;63.29;96924.59;4968577;28;20521;-76
2022/04/19 03:02:11;;;;;;;4.80;3.00;;;6.40;83.40;;;5.20;63.28;96921.41;4968100;28;20512;-76
2022/04/19 03:04:38;;;;;;;3.75;2.80;;;6.40;83.50;;;5.21;63.46;96930.88;4968526;28;20888;-76
2022/04/19 03:07:05;;;;;;;4.90;2.88;;;6.30;83.70;;;5.16;63.56;96928.16;4968573;28;20458;-76
2022/04/19 03:09:31;;;;;;;3.40;2.70;;;6.30;83.50;;;5.15;63.34;96923.13;4968443;28;20495;-76
2022/04/19 03:11:57;;;;;;;5.05;2.72;;;6.30;83.40;;;5.11;63.51;96916.75;4968076;28;20965;-76
2022/04/19 03:14:25;;;;;;;4.68;3.30;;;6.30;83.50;;;5.08;63.35;96923.22;4968471;28;20893;-76
2022/04/19 03:16:51;;;;;;;4.40;3.30;;;6.20;83.50;;;5.18;62.66;96920.06;4968303;28;20523;-76
2022/04/19 03:19:17;;;;;;;3.72;3.20;;;6.30;83.00;;;5.09;63.19;96914.34;4968271;28;20491;-76
2022/04/19 03:21:45;;;;;;;3.97;2.80;;;6.20;83.50;;;5.03;62.96;96913.44;4968044;28;20428;-76
2022/04/19 03:29:40;;;;;;;5.40;3.40;;;6.10;83.70;;;4.95;63.55;96910.34;4968184;28;20439;-76
2022/04/19 03:32:09;;;;;;;4.28;3.00;;;6.10;83.90;;;5.01;62.99;96907.59;4966490;28;20420;-76
2022/04/19 03:34:35;;;;;;;3.47;3.10;;;6.10;83.40;;;4.94;63.23;96906.13;4968093;28;20472;-76
2022/04/19 03:37:03;;;;;;;5.22;3.22;;;6.10;83.70;;;4.89;63.96;96909.41;4968173;28;20504;-76
2022/04/19 03:39:28;;;;;;;4.07;3.30;;;6.00;84.40;;;4.90;63.87;96915.44;4967813;28;20926;-76
2022/04/19 03:41:57;;;;;;;5.43;3.50;;;6.00;84.70;;;4.88;64.29;96907.84;4967592;28;20432;-76
2022/04/19 03:44:23;;;;;;;7.28;3.60;;;6.00;85.10;;;4.87;63.78;96908.06;4969466;28;20417;-76
2022/04/19 03:47:07;;;;;;;4.25;3.20;;;6.00;84.70;;;4.84;64.14;96911.13;4971558;28;20401;-76
2022/04/19 03:49:34;;;;;;;4.97;3.60;;;5.90;84.90;;;4.77;64.10;96913.84;4971050;28;20887;-76
2022/04/19 03:52:02;;;;;;;4.75;3.38;;;5.90;85.20;;;4.76;64.21;96908.81;4970901;28;20767;-76
2022/04/19 03:54:27;;;;;;;5.32;3.38;;;5.90;85.10;;;4.73;64.56;96914.53;4971226;28;20439;-76
2022/04/19 03:56:54;;;;;;;4.30;3.45;;;5.90;86.50;;;4.68;65.00;96923.06;4971467;28;20432;-76
2022/04/19 03:59:22;;;;;;;5.22;3.55;;;5.80;86.20;;;4.64;65.10;96917.47;4971026;28;20404;-76
2022/04/19 04:01:48;;;;;;;4.83;3.27;;;5.80;86.30;;;4.66;65.10;96920.66;4970851;28;20504;-76
2022/04/19 04:04:14;;;;;;;6.13;3.65;;;5.80;86.50;;;4.65;64.69;96932.19;4971424;28;20481;-76
2022/04/19 04:06:40;;;;;;;3.70;3.27;;;5.80;86.50;;;4.67;64.69;96929.31;4971181;28;20408;-76
2022/04/19 04:09:07;;;;;;;5.07;3.50;;;5.80;86.10;;;4.62;65.08;96930.00;4970927;28;20420;-76
2022/04/19 04:11:33;;;;;;;4.97;3.65;;;5.70;86.60;;;4.60;64.78;96924.16;4970718;28;20960;-75
2022/04/19 04:13:59;;;;;;;4.33;3.30;;;5.80;86.50;;;4.56;64.96;96923.03;4970938;28;20495;-75
2022/04/19 04:16:25;;;;;;;4.57;3.22;;;5.70;86.70;;;4.53;65.44;96920.06;4971094;28;20436;-75
2022/04/19 04:18:51;;;;;;;6.20;3.88;;;5.70;87.60;;;4.47;65.87;96924.38;4970730;28;20493;-75
2022/04/19 04:21:17;;;;;;;5.00;3.63;;;5.70;87.50;;;4.49;65.15;96914.47;4970410;28;20960;-76
2022/04/19 04:23:43;;;;;;;4.93;3.63;;;5.70;87.20;;;4.46;65.76;96914.91;4970929;28;20504;-76
2022/04/19 04:26:10;;;;;;;4.13;3.65;;;5.60;87.60;;;4.44;65.74;96922.19;4970809;28;20401;-76
2022/04/19 04:28:36;;;;;;;5.20;3.75;;;5.60;88.00;;;4.42;66.11;96920.84;4970550;28;20940;-76
2022/04/19 04:31:02;;;;;;;6.05;4.10;;;5.60;88.30;;;4.43;66.27;96928.47;4969194;28;20416;-76
2022/04/19 04:33:28;;;;;;;7.20;4.00;;;5.60;88.80;;;4.45;66.14;96926.41;4970710;28;20420;-76
2022/04/19 04:35:54;;;;;;;4.57;3.47;;;5.60;88.60;;;4.41;66.26;96929.72;4970761;28;20879;-76
2022/04/19 04:38:20;;;;;;;4.63;3.83;;;5.60;88.60;;;4.46;66.32;96929.81;4981881;22;20441;-74
2022/04/19 04:40:45;;;;;;;6.20;4.00;;;5.60;88.70;;;4.53;65.50;96933.97;4969494;28;20408;-75
2022/04/19 04:43:13;;;;;;;8.17;3.60;;;5.70;88.20;;;4.47;65.34;96937.47;4970415;28;20505;-76
2022/04/19 04:45:39;;;;;;;6.75;3.90;;;5.60;87.90;;;4.47;65.70;96931.44;4970483;28;20401;-76
2022/04/19 04:50:49;;;;;;;5.00;3.53;;;5.60;88.70;;;4.48;66.74;96931.22;4970228;28;20400;-76
2022/04/19 04:53:15;;;;;;;4.63;3.70;;;5.60;89.40;;;4.51;66.69;96922.13;4970013;28;20465;-76
2022/04/19 04:55:41;;;;;;;4.72;3.70;;;5.60;89.60;;;4.55;66.25;96923.25;4970084;28;20409;-77
2022/04/19 04:58:09;;;;;;;4.05;3.08;;;5.70;89.30;;;4.53;66.29;96915.59;4970358;28;20423;-76
2022/04/19 05:00:37;;;;;;;3.95;3.20;;;5.70;89.10;;;4.57;66.49;96919.41;4969814;28;20427;-76
2022/04/19 05:03:02;;;;;;;4.43;3.70;;;5.70;89.80;;;4.59;66.76;96916.53;4970093;28;20919;-76
2022/04/19 05:05:29;;;;;;;4.30;3.00;;;5.70;89.70;;;4.63;66.76;96915.06;4970402;28;20514;-77
2022/04/19 05:07:55;;;;;;;5.45;3.42;;;5.70;89.80;;;4.64;67.21;96911.44;4970183;28;20465;-76
2022/04/19 05:10:21;;;;;;;4.17;3.47;;;5.70;90.00;;;4.64;67.08;96921.91;4969951;28;20507;-76
2022/04/19 05:12:47;;;;;;;4.15;3.60;;;5.80;90.10;;;4.62;67.55;96919.50;4970292;28;20401;-77
2022/04/19 05:15:13;;;;;;;4.53;3.30;;;5.80;90.30;;;4.67;67.21;96922.25;4969036;28;20479;-76
2022/04/19 05:17:40;;;;;;;5.28;3.42;;;5.90;90.20;;;4.73;67.46;96919.78;4968701;28;20413;-76
2022/04/19 05:20:09;;;;;;;4.00;3.40;;;5.90;90.40;;;4.77;67.82;96920.91;4969877;28;20435;-76
2022/04/19 05:22:35;;;;;;;3.42;3.10;;;5.90;90.50;;;4.83;67.64;96928.66;4970089;28;20908;-76
2022/04/19 05:25:01;;;;;;;4.13;3.13;;;6.00;90.50;;;4.89;67.83;96922.50;4970101;28;20412;-76
2022/04/19 05:27:26;;;;;;;3.58;3.17;;;6.00;90.40;;;4.98;67.25;96925.63;4968936;28;20478;-75
2022/04/19 05:29:52;;;;;;;5.10;3.30;;;6.20;90.30;;;5.05;67.38;96927.09;4969805;28;20423;-75
2022/04/19 05:32:18;;;;;;;3.43;3.13;;;6.20;90.30;;;5.12;66.96;96923.56;4967995;28;20442;-76
2022/04/19 05:34:47;;;;;;;5.90;3.42;;;6.30;90.60;;;5.22;67.29;96929.06;4964824;28;20820;-76
2022/04/19 05:37:13;;;;;;;5.20;3.50;;;6.30;90.30;;;5.32;67.60;96927.47;4970314;28;20887;-76
2022/04/19 05:39:39;;;;;;;4.37;3.30;;;6.40;90.50;;;5.46;67.46;96930.66;4969754;28;20452;-76
2022/04/19 05:42:05;;;;;;;5.38;3.80;;;6.60;90.40;;;5.57;67.23;96935.06;4977640;28;20769;-75
2022/04/19 05:44:31;;;;;;;7.07;4.07;;;6.70;90.30;;;5.71;66.66;96930.41;4969868;28;20420;-75
2022/04/19 05:46:57;;;;;;;4.85;3.35;;;6.80;90.10;;;5.82;66.42;96935.63;4969762;28;20485;-75
2022/04/19 05:49:23;;;;;;;4.28;3.40;;;6.90;89.70;;;5.96;66.09;96936.19;4969620;28;20412;-74
2022/04/19 05:51:51;;;;;;;4.83;3.50;;;7.00;89.40;;;6.08;65.68;96930.91;4969217;28;20408;-74
2022/04/19 05:54:16;;;;;;;4.90;3.23;;;7.10;88.80;;;6.19;65.35;96937.94;4969641;28;20415;-75
2022/04/19 05:56:42;;;;;;;4.72;3.40;;;7.30;88.50;;;6.28;65.24;96930.50;4968673;28;20836;-75
2022/04/19 05:59:08;;;;;;;5.38;3.47;;;7.40;88.30;;;6.36;65.21;96930.13;4977923;28;20416;-74
2022/04/19 06:07:05;;;;;;;7.45;4.00;;;7.50;88.00;;;6.51;64.85;96933.03;4969815;28;20487;-75
2022/04/19 06:09:30;;;;;;;6.47;3.67;;;7.60;87.90;;;6.56;64.69;96928.66;4969138;28;20423;-75
2022/04/19 06:11:56;;;;;;;5.82;4.22;;;7.60;87.60;;;6.64;64.96;96935.34;4968978;28;20405;-75
2022/04/19 06:14:22;;;;;;;5.87;4.27;;;7.70;87.50;;;6.70;64.78;96939.66;4969408;28;20545;-74
2022/04/19 06:16:48;;;;;;;8.20;3.97;;;7.70;87.60;;;6.78;64.08;96938.47;4969299;28;20813;-77
2022/04/19 06:19:14;;;;;;;6.63;4.35;;;7.80;86.50;;;6.86;62.67;96930.19;4976609;28;20503;-73
2022/04/19 06:21:41;;;;;;;6.07;4.03;;;7.90;85.40;;;6.92;62.63;96937.13;4984454;28;20415;-84
2022/04/19 06:24:09;;;;;;;6.28;4.25;;;7.90;84.80;;;7.03;62.14;96938.91;4988814;28;20413;-79
2022/04/19 06:26:35;;;;;;;5.95;4.13;;;8.00;85.00;;;7.20;60.06;96939.72;4987650;28;20414;-76
2022/04/19 06:29:01;;;;;;;7.68;4.22;;;8.20;81.30;;;7.38;57.70;96939.44;4970333;28;20508;-77
2022/04/19 06:31:27;;;;;;;7.53;4.60;;;8.40;78.60;;;7.60;54.76;96936.06;4972717;28;20436;-76
2022/04/19 06:33:53;;;;;;;7.40;4.80;;;8.60;74.00;;;7.73;54.63;96933.88;4967327;28;20410;-76
2022/04/19 06:36:19;;;;;;;7.97;4.55;;;8.70;73.50;;;7.88;53.83;96928.00;4969494;28;20415;-77
2022/04/19 06:38:45;;;;;;;6.85;4.32;;;8.90;71.70;;;8.01;54.33;96927.63;4967424;28;20420;-76
2022/04/19 06:41:12;;;;;;;7.80;4.78;;;9.00;72.30;;;8.14;53.45;96923.81;4968544;28;20505;-76
2022/04/19 06:43:38;;;;;;;7.15;4.68;;;9.10;71.30;;;8.22;52.71;96922.59;4969062;28;20396;-76
2022/04/19 06:46:04;;;;;;;7.20;4.60;;;9.20;70.50;;;8.27;52.37;96927.94;4968749;28;20412;-76
2022/04/19 06:48:30;;;;;;;7.63;4.68;;;9.20;69.10;;;8.28;53.01;96926.88;4968731;28;20435;-76
2022/04/19 06:50:56;;;;;;;5.57;3.83;;;9.20;69.60;;;8.30;53.76;96930.06;4968361;28;20419;-76
2022/04/19 06:53:22;;;;;;;8.10;4.30;;;9.20;70.60;;;8.29;54.76;96928.47;4968858;28;20428;-77
2022/04/19 06:55:47;;;;;;;6.75;4.05;;;9.20;71.90;;;8.28;56.02;96929.50;4968905;28;20412;-76
2022/04/19 06:58:15;;;;;;;5.50;3.72;;;9.20;73.60;;;8.28;56.55;96929.50;4968697;28;20438;-76
2022/04/19 07:00:41;;;;;;;6.63;3.95;;;9.20;74.40;;;8.26;57.31;96926.34;4968162;28;20458;-76
2022/04/19 07:03:07;;;;;;;4.20;3.30;;;9.20;75.50;;;8.21;58.12;96929.69;4968535;28;20445;-76
2022/04/19 07:05:33;;;;;;;6.35;3.78;;;9.20;76.80;;;8.20;59.12;96929.94;4968800;28;20412;-77
2022/04/19 07:07:59;;;;;;;6.95;3.88;;;9.20;77.80;;;8.19;59.23;96933.66;4968733;28;20503;-77
2022/04/19 07:10:25;;;;;;;6.67;4.00;;;9.20;78.60;;;8.19;59.76;96931.81;4968224;28;20475;-77
2022/04/19 07:12:51;;;;;;;10.23;3.97;;;9.10;79.10;;;8.22;59.85;96931.31;4968431;28;20769;-77
2022/04/19 07:15:18;;;;;;;7.03;3.87;;;9.20;79.70;;;8.28;59.84;96932.16;4968529;28;20466;-76
2022/04/19 07:17:44;;;;;;;6.78;4.35;;;9.20;79.70;;;8.34;59.66;96936.50;4969114;28;20446;-77
2022/04/19 07:28:24;;;;;;;7.55;4.78;;;9.50;78.20;;;8.73;57.36;96937.13;4971830;28;20481;-77
2022/04/19 07:30:51;;;;;;;12.87;4.77;;;9.60;77.20;;;8.84;56.94;96938.81;4971362;28;20587;-77
2022/04/19 07:33:17;;;;;;;6.80;4.38;;;9.70;76.10;;;8.96;56.90;96933.38;4971780;28;20412;-76
2022/04/19 07:35:43;;;;;;;6.07;4.03;;;9.80;75.70;;;9.06;56.96;96941.38;4971672;28;20842;-76
2022/04/19 07:38:10;;;;;;;8.23;4.60;;;9.90;75.70;;;9.11;56.35;96934.28;4971597;28;20546;-77
2022/04/19 07:40:36;;;;;;;7.72;4.65;;;10.00;75.30;;;9.20;56.64;96940.69;4971181;28;20442;-77
2022/04/19 07:43:02;;;;;;;8.93;4.90;;;10.10;75.30;;;9.28;55.86;96939.44;4971546;28;20424;-77
2022/04/19 07:45:28;;;;;;;10.43;4.80;;;10.20;74.50;;;9.33;55.10;96937.63;4971550;28;20774;-77
2022/04/19 07:47:55;;;;;;;9.85;4.53;;;10.20;73.20;;;9.39;55.32;96929.75;4971568;28;20412;-77
2022/04/19 07:50:21;;;;;;;9.83;4.97;;;10.30;73.20;;;9.38;55.72;96931.59;4971014;28;20485;-77
2022/04/19 07:52:47;;;;;;;7.88;4.47;;;10.30;73.50;;;9.42;55.39;96931.88;4970325;28;20424;-77
2022/04/19 07:55:13;;;;;;;6.93;4.47;;;10.30;73.50;;;9.48;55.03;96934.28;4971517;28;20400;-77
2022/04/19 07:57:39;;;;;;;10.48;4.63;;;10.30;72.70;;;9.53;53.99;96921.13;4971449;28;20912;-77
2022/04/19 08:00:07;;;;;;;6.85;3.70;;;10.40;71.40;;;9.62;53.76;96932.78;4971140;28;20405;-76
2022/04/19 08:02:33;;;;;;;7.05;4.57;;;10.50;71.00;;;9.70;53.19;96928.88;4971115;28;20558;-77
2022/04/19 08:05:00;;;;;;;7.63;4.33;;;10.60;70.20;;;9.72;51.62;96926.75;4971279;28;20918;-77
2022/04/19 08:07:26;;;;;;;8.25;4.80;;;10.60;67.50;;;9.79;50.94;96931.81;4971407;28;20423;-77
2022/04/19 08:09:52;;;;;;;10.60;5.00;;;10.70;67.10;;;9.83;49.67;96928.41;4971137;28;20825;-77
2022/04/19 08:12:18;;;;;;;8.15;4.80;;;10.70;65.30;;;9.88;49.85;96930.28;4971101;28;20958;-77
2022/04/19 08:14:44;;;;;;;9.43;4.30;;;10.80;65.30;;;9.98;50.88;96928.50;4971390;28;20419;-76
2022/04/19 08:17:11;;;;;;;6.80;4.00;;;10.90;66.40;;;10.14;51.55;96923.25;4971303;28;20424;-77
2022/04/19 08:19:36;;;;;;;8.35;4.65;;;11.00;67.30;;;10.20;52.22;96933.63;4971236;28;20420;-77
2022/04/19 08:22:04;;;;;;;7.03;4.00;;;11.10;68.10;;;10.28;51.42;96922.56;4970639;28;20870;-77
2022/04/19 08:24:30;;;;;;;7.45;3.80;;;11.20;67.20;;;10.32;51.79;96920.97;4971108;28;20412;-76
2022/04/19 08:26:56;;;;;;;6.85;3.83;;;11.20;67.50;;;10.35;50.79;96924.94;4970975;28;20840;-77
2022/04/19 08:29:21;;;;;;;7.28;3.85;;;11.20;66.90;;;10.41;50.68;96916.75;4970217;28;20416;-77
2022/04/19 08:31:47;;;;;;;7.22;4.05;;;11.20;66.00;;;10.50;50.56;96913.59;4970895;28;20408;-77
2022/04/19 08:34:14;;;;;;;5.30;3.40;;;11.30;65.70;;;10.59;49.56;96919.97;4971023;28;20435;-77
2022/04/19 08:36:40;;;;;;;4.72;3.20;;;11.40;64.50;;;10.77;50.27;96911.53;4970936;28;20404;-77
2022/04/19 08:39:09;;;;;;;7.65;3.42;;;11.60;65.30;;;10.87;49.99;96916.84;4970704;28;20457;-77
2022/04/19 08:41:37;;;;;;;7.88;4.25;;;11.70;64.90;;;10.97;49.92;96916.84;4970485;28;20474;-77
2022/04/19 08:44:04;;;;;;;4.53;3.20;;;11.80;64.60;;;11.08;49.87;96913.13;4969559;28;20418;-77
2022/04/19 08:46:32;;;;;;;9.30;3.93;;;11.90;64.90;;;11.13;50.00;96909.66;4970959;28;20490;-78
2022/04/19 08:49:05;;;;;;;6.65;3.80;;;11.90;64.70;;;11.21;48.69;96917.88;4969370;28;21079;-77
2022/04/19 08:51:35;;;;;;;5.90;3.42;;;12.00;62.70;;;11.32;49.39;96910.72;4970411;28;20488;-77
2022/04/19 08:59:32;;;;;;;9.93;4.57;;;12.20;61.70;;;11.52;47.66;96902.75;4970804;28;20502;-77
2022/04/19 09:01:59;;;;;;;6.95;4.05;;;12.30;61.70;;;11.56;46.50;96897.72;4970045;28;20893;-76
2022/04/19 09:04:25;;;;;;;11.63;4.57;;;12.40;59.90;;;11.58;45.99;96898.22;4969347;28;21179;-77
2022/04/19 09:06:56;;;;;;;7.05;3.90;;;12.40;59.60;;;11.68;46.71;96895.53;4970646;28;20404;-76
2022/04/19 09:09:23;;;;;;;7.60;4.30;;;12.50;59.70;;;11.76;47.60;96902.97;4970869;28;20416;-77
2022/04/19 09:11:52;;;;;;;5.97;4.10;;;12.60;60.80;;;11.79;45.89;96899.00;4970298;28;20404;-77
2022/04/19 09:14:18;;;;;;;7.15;4.28;;;12.60;59.20;;;11.82;45.38;96899.25;4970622;28;20405;-78
2022/04/19 09:16:45;;;;;;;9.27;4.22;;;12.60;58.20;;;11.86;45.29;96892.34;4970498;28;20436;-77
2022/04/19 09:19:26;;;;;;;10.70;4.70;;;12.70;58.00;;;12.00;45.36;96892.56;4969066;28;20512;-76
2022/04/19 09:21:52;;;;;;;7.50;4.10;;;12.80;58.20;;;12.07;44.62;96886.94;4970123;28;20428;-78
2022/04/19 09:24:19;;;;;;;8.40;4.07;;;12.90;57.50;;;12.19;45.94;96900.69;4970604;28;20412;-77
2022/04/19 09:26:48;;;;;;;8.68;4.05;;;13.00;58.20;;;12.32;45.73;96898.25;4970408;28;20400;-77
2022/04/19 09:29:21;;;;;;;13.03;4.87;;;13.10;58.50;;;12.36;42.08;96899.28;4970170;28;20526;-77
2022/04/19 09:31:48;;;;;;;11.30;4.82;;;13.20;54.70;;;12.51;43.98;96890.44;4969988;28;20409;-77
2022/04/19 09:34:25;;;;;;;6.78;3.70;;;13.30;56.40;;;12.51;44.43;96892.28;4970452;28;20416;-77
2022/04/19 09:37:06;;;;;;;8.00;3.83;;;13.30;56.70;;;12.60;41.67;96893.31;4970471;28;20491;-77
2022/04/19 09:39:34;;;;;;;6.67;3.83;;;13.40;54.50;;;12.56;39.73;96889.59;4969912;28;20492;-77
2022/04/19 09:42:03;;;;;;;7.68;3.60;;;13.40;51.20;;;12.72;42.13;96888.44;4968673;28;20421;-77
2022/04/19 09:44:37;;;;;;;8.45;3.63;;;13.50;53.90;;;12.64;38.29;96886.34;4969885;28;20405;-77
2022/04/19 09:47:05;;;;;;;7.10;3.95;;;13.50;48.90;;;12.71;38.31;96881.53;4970109;28;20408;-77
2022/04/19 09:49:45;;;;;;;5.50;3.10;;;13.50;49.10;;;12.71;38.26;96887.63;4969679;28;20408;-77
2022/04/19 09:52:41;;;;;;;7.93;3.50;;;13.50;49.10;;;12.73;36.71;96879.41;4969372;28;20466;-76
2022/04/19 09:55:10;;;;;;;6.30;3.30;;;13.60;47.10;;;12.97;38.38;96888.25;4970272;28;20418;-77
2022/04/19 09:57:38;;;;;;;5.03;2.90;;;13.80;49.00;;;13.01;36.01;96880.50;4981219;28;20407;-78
2022/04/19 10:00:09;;;;;;;3.80;2.45;;;13.80;46.80;;;13.12;38.44;96877.50;4988661;28;20453;-76
2022/04/19 10:08:21;;;;;;;7.90;3.40;;;14.10;51.90;;;13.55;39.71;96872.31;4978339;28;20401;-76
2022/04/19 10:10:49;;;;;;;7.15;3.55;;;14.30;51.00;;;13.83;38.77;96879.44;4964511;28;20468;-77
2022/04/19 10:13:18;;;;;;;6.33;3.63;;;14.50;49.40;;;13.96;38.00;96870.00;4967046;28;21051;-77
2022/04/19 10:15:46;;;;;;;5.72;3.50;;;14.60;48.20;;;14.26;38.21;96871.47;4961628;28;20434;-77
2022/04/19 10:18:12;;;;;;;5.17;3.20;;;14.80;48.60;;;14.64;38.68;96870.44;4978039;28;20413;-77
2022/04/19 10:20:45;;;;;;;7.28;3.47;;;15.30;49.60;;;15.08;36.02;96858.56;4980013;28;20923;-77
2022/04/19 10:23:11;;;;;;;7.93;3.70;;;15.70;47.50;;;15.40;33.50;96865.72;4978642;28;20518;-79
2022/04/19 10:25:44;;;;;;;4.25;2.88;;;16.10;44.30;;;15.84;34.63;96874.00;4968731;28;20435;-74
2022/04/19 10:28:12;;;;;;;6.10;3.50;;;16.40;44.40;;;16.27;33.21;96873.66;4952556;28;20425;-82
2022/04/19 10:30:51;;;;;;;8.13;3.23;;;16.80;42.70;;;16.35;31.07;96861.47;4950899;29;20446;-81
2022/04/19 10:33:51;;;;;;;7.85;3.92;;;17.00;40.60;;;16.50;30.65;96869.16;4964858;28;20442;-80
2022/04/19 10:36:20;;;;;;;4.30;2.90;;;17.00;38.20;;;16.80;29.73;96870.38;4967341;28;20411;-79
2022/04/19 10:39:23;;;;;;;7.32;2.80;;;17.30;39.00;;;17.36;31.58;96867.13;4988561;22;20427;-75
2022/04/19 10:41:52;;;;;;;3.78;2.35;;;17.80;40.50;;;18.13;32.51;96862.06;4947916;28;20886;-74
2022/04/19 10:44:28;;;;;;;4.45;2.60;;;18.50;41.90;;;18.80;31.98;96852.84;4957901;28;20602;-74
2022/04/19 10:47:13;;;;;;;5.85;3.00;;;19.10;41.30;;;19.24;27.99;96863.22;4959025;28;20456;-75
2022/04/19 10:50:02;;;;;;;5.40;3.30;;;19.70;36.20;;;19.71;27.79;96857.88;4953553;28;20406;-74
2022/04/19 10:52:51;;;;;;;5.47;3.58;;;20.00;35.40;;;19.89;26.20;96848.63;4934714;28;20469;-80
2022/04/19 10:55:26;;;;;;;4.60;2.90;;;20.30;33.30;;;21.01;28.51;96858.63;4955550;28;20417;-78
2022/04/19 10:58:24;;;;;;;4.35;3.20;;;21.20;37.00;;;21.36;25.95;96845.63;4960282;28;20907;-76
2022/04/19 11:00:54;;;;;;;8.05;4.03;;;21.70;33.00;;;21.45;23.70;96856.31;4944668;29;20491;-76
2022/04/19 11:03:44;;;;;;;6.53;4.68;;;21.90;30.00;;;21.61;23.91;96855.31;4971856;28;20763;-76
2022/04/19 11:06:31;;;;;;;6.30;3.47;;;21.90;30.00;;;22.40;24.56;96847.81;4959855;28;20419;-76